Time;durP1;ratioP1;P1;durP2;ratioP2;P2;SDS_P1;SDS_P2;PMS_P1;PMS_P2;Temp;Humidity;BMP_temperature;BMP_pressure;BME280_temperature;BME280_humidity;BME280_pressure;Samples;Min_cycle;Max_cycle;Signal;HPM_P1;HPM_P2
2023/04/08 00:00:35;;;;;;;9.00;8.70;;;;;;;;;;4246424;28;20038;-61
2023/04/08 00:02:55;;;;;;;9.60;9.30;;;;;;;;;;4244905;28;20369;-61
2023/04/08 00:05:15;;;;;;;9.32;8.98;;;;;;;;;;4241318;28;20057;-60
2023/04/08 00:07:36;;;;;;;10.68;10.27;;;;;;;;;;4246721;28;20046;-60
2023/04/08 00:09:56;;;;;;;11.40;11.00;;;;;;;;;;4246684;28;20054;-61
2023/04/08 00:12:17;;;;;;;10.18;9.80;;;;;;;;;;4246439;28;20050;-60
2023/04/08 00:14:37;;;;;;;11.50;10.70;;;;;;;;;;4250146;28;20038;-61
2023/04/08 00:16:57;;;;;;;10.77;10.38;;;;;;;;;;4247373;28;20046;-60
2023/04/08 00:19:17;;;;;;;7.50;7.40;;;;;;;;;;4244319;28;20074;-61
2023/04/08 00:21:38;;;;;;;10.45;9.75;;;;;;;;;;4229753;28;20066;-61
2023/04/08 00:23:58;;;;;;;9.48;9.10;;;;;;;;;;4243219;28;20243;-61
2023/04/08 00:26:19;;;;;;;8.80;8.35;;;;;;;;;;4245048;28;20062;-61
2023/04/08 00:28:40;;;;;;;8.80;8.30;;;;;;;;;;4242697;28;20043;-61
2023/04/08 00:31:00;;;;;;;7.53;7.22;;;;;;;;;;4242416;28;20050;-61
2023/04/08 00:33:20;;;;;;;9.30;8.95;;;;;;;;;;4246284;28;20046;-61
2023/04/08 00:35:41;;;;;;;8.63;8.43;;;;;;;;;;4241024;28;20051;-61
2023/04/08 00:38:02;;;;;;;10.48;10.18;;;;;;;;;;4246780;28;20110;-61
2023/04/08 00:40:22;;;;;;;8.57;8.38;;;;;;;;;;4248990;28;20369;-60
2023/04/08 00:42:42;;;;;;;9.70;9.43;;;;;;;;;;4243551;28;20084;-61
2023/04/08 00:45:02;;;;;;;9.05;8.68;;;;;;;;;;4245211;28;20088;-60
2023/04/08 00:47:23;;;;;;;8.65;8.35;;;;;;;;;;4250384;28;20089;-61
2023/04/08 00:49:44;;;;;;;9.90;9.60;;;;;;;;;;4252035;28;20039;-60
2023/04/08 00:52:05;;;;;;;10.57;9.88;;;;;;;;;;4234736;28;20055;-61
2023/04/08 00:54:25;;;;;;;8.70;8.50;;;;;;;;;;4242892;28;20320;-60
2023/04/08 00:56:45;;;;;;;8.90;8.60;;;;;;;;;;4248594;28;20110;-60
2023/04/08 00:59:06;;;;;;;8.50;8.13;;;;;;;;;;4242283;28;20302;-61
2023/04/08 01:01:26;;;;;;;8.85;8.38;;;;;;;;;;4243349;28;20053;-60
2023/04/08 01:03:57;;;;;;;7.40;7.10;;;;;;;;;;4245816;28;20069;-60
2023/04/08 01:06:17;;;;;;;8.43;8.23;;;;;;;;;;4246983;28;20380;-60
2023/04/08 01:08:38;;;;;;;8.50;8.18;;;;;;;;;;4251713;28;20115;-60
2023/04/08 01:11:00;;;;;;;8.43;8.02;;;;;;;;;;4248127;28;20096;-61
2023/04/08 01:13:23;;;;;;;9.10;8.77;;;;;;;;;;4249716;28;20038;-60
2023/04/08 01:15:44;;;;;;;7.80;7.38;;;;;;;;;;4245923;28;20086;-61
2023/04/08 01:18:10;;;;;;;7.25;6.85;;;;;;;;;;4246517;28;20043;-61
2023/04/08 01:20:31;;;;;;;7.22;6.95;;;;;;;;;;4248384;28;20046;-61
2023/04/08 01:22:53;;;;;;;6.55;6.30;;;;;;;;;;4248847;28;20049;-61
2023/04/08 01:25:18;;;;;;;6.43;6.23;;;;;;;;;;4244266;28;20081;-60
2023/04/08 01:27:39;;;;;;;6.05;5.85;;;;;;;;;;4250225;28;20047;-61
2023/04/08 01:30:00;;;;;;;5.28;5.07;;;;;;;;;;4247782;28;20046;-61
2023/04/08 01:32:21;;;;;;;5.50;5.32;;;;;;;;;;4247750;28;20381;-60
2023/04/08 01:34:41;;;;;;;5.13;5.13;;;;;;;;;;4246868;28;20038;-60
2023/04/08 01:37:02;;;;;;;4.38;4.38;;;;;;;;;;4247094;28;20104;-60
2023/04/08 01:39:23;;;;;;;4.85;4.75;;;;;;;;;;4246041;28;20042;-60
2023/04/08 01:41:43;;;;;;;4.18;4.15;;;;;;;;;;4243034;28;20046;-60
2023/04/08 01:44:04;;;;;;;4.20;4.10;;;;;;;;;;4242959;28;20119;-61
2023/04/08 01:46:25;;;;;;;5.07;4.97;;;;;;;;;;4249762;28;20050;-60
2023/04/08 01:48:47;;;;;;;5.25;5.00;;;;;;;;;;4247442;28;20065;-60
2023/04/08 01:51:08;;;;;;;4.60;4.60;;;;;;;;;;4245659;28;20061;-60
2023/04/08 01:53:29;;;;;;;4.65;4.65;;;;;;;;;;4243711;28;20054;-60
2023/04/08 01:55:52;;;;;;;4.38;4.38;;;;;;;;;;4246128;28;20046;-61
2023/04/08 01:58:18;;;;;;;4.15;4.15;;;;;;;;;;4245939;28;20085;-61
2023/04/08 02:00:40;;;;;;;3.65;3.65;;;;;;;;;;4251544;28;20046;-60
2023/04/08 02:03:01;;;;;;;5.13;5.03;;;;;;;;;;4245505;28;20042;-60
2023/04/08 02:05:22;;;;;;;3.97;3.85;;;;;;;;;;4232498;28;20235;-61
2023/04/08 02:07:44;;;;;;;3.90;3.88;;;;;;;;;;4249200;28;20129;-60
2023/04/08 02:10:04;;;;;;;4.15;4.05;;;;;;;;;;4246765;28;20042;-60
2023/04/08 02:12:25;;;;;;;3.55;3.50;;;;;;;;;;4244343;28;20403;-60
2023/04/08 02:14:46;;;;;;;3.85;3.85;;;;;;;;;;4248945;27;20034;-60
2023/04/08 02:17:14;;;;;;;3.90;3.80;;;;;;;;;;4247662;28;20310;-60
2023/04/08 02:19:39;;;;;;;3.55;3.45;;;;;;;;;;4248041;28;20408;-60
2023/04/08 02:22:05;;;;;;;3.90;3.80;;;;;;;;;;4244818;28;20039;-60
2023/04/08 02:24:26;;;;;;;3.20;3.20;;;;;;;;;;4248852;28;20243;-60
2023/04/08 02:26:47;;;;;;;3.58;3.58;;;;;;;;;;4251327;28;20111;-60
2023/04/08 02:29:09;;;;;;;3.60;3.60;;;;;;;;;;4242968;28;20372;-60
2023/04/08 02:31:29;;;;;;;3.90;3.90;;;;;;;;;;4244256;28;20074;-60
2023/04/08 02:33:51;;;;;;;4.85;4.75;;;;;;;;;;4245846;28;20369;-60
2023/04/08 02:36:11;;;;;;;4.20;4.10;;;;;;;;;;4246092;28;20076;-60
2023/04/08 02:38:32;;;;;;;4.07;3.88;;;;;;;;;;4243732;28;20050;-60
2023/04/08 02:40:52;;;;;;;4.10;4.00;;;;;;;;;;4248766;28;20066;-60
2023/04/08 02:43:12;;;;;;;3.88;3.88;;;;;;;;;;4243690;28;20230;-60
2023/04/08 02:45:37;;;;;;;4.03;3.92;;;;;;;;;;4243837;28;20068;-60
2023/04/08 02:47:58;;;;;;;4.18;4.05;;;;;;;;;;4249307;28;20070;-60
2023/04/08 02:50:18;;;;;;;4.28;4.28;;;;;;;;;;4244979;28;20042;-60
2023/04/08 02:52:38;;;;;;;4.50;4.28;;;;;;;;;;4243167;28;20084;-59
2023/04/08 02:54:58;;;;;;;4.18;4.07;;;;;;;;;;4247163;28;20038;-59
2023/04/08 02:57:19;;;;;;;5.45;5.35;;;;;;;;;;4249455;28;20087;-60
2023/04/08 02:59:39;;;;;;;4.40;4.40;;;;;;;;;;4250060;28;20145;-60
2023/04/08 03:02:00;;;;;;;3.92;3.92;;;;;;;;;;4245273;28;20084;-60
2023/04/08 03:04:20;;;;;;;4.57;4.57;;;;;;;;;;4246392;28;20089;-59
2023/04/08 03:06:40;;;;;;;3.05;3.05;;;;;;;;;;4244614;28;20050;-60
2023/04/08 03:09:01;;;;;;;4.85;4.85;;;;;;;;;;4243264;28;20043;-59
2023/04/08 03:11:21;;;;;;;4.40;4.40;;;;;;;;;;4250287;28;20239;-59
2023/04/08 03:13:41;;;;;;;4.38;4.38;;;;;;;;;;4248610;28;20074;-60
2023/04/08 03:16:01;;;;;;;5.85;5.85;;;;;;;;;;4245211;28;20106;-59
2023/04/08 03:18:22;;;;;;;4.22;4.22;;;;;;;;;;4241827;28;20227;-59
2023/04/08 03:20:42;;;;;;;3.90;3.90;;;;;;;;;;4249452;28;20377;-59
2023/04/08 03:23:02;;;;;;;4.70;4.70;;;;;;;;;;4247148;28;20092;-59
2023/04/08 03:25:22;;;;;;;4.60;4.60;;;;;;;;;;4248600;28;20299;-59
2023/04/08 03:27:43;;;;;;;5.00;4.97;;;;;;;;;;4246633;28;20077;-60
2023/04/08 03:30:05;;;;;;;4.57;4.57;;;;;;;;;;4247453;28;20051;-59
2023/04/08 03:32:25;;;;;;;4.88;4.88;;;;;;;;;;4249545;28;20055;-60
2023/04/08 03:34:46;;;;;;;4.72;4.72;;;;;;;;;;4245430;28;20051;-60
2023/04/08 03:37:06;;;;;;;4.53;4.53;;;;;;;;;;4245859;27;20394;-60
2023/04/08 03:39:26;;;;;;;3.28;3.28;;;;;;;;;;4248472;28;20047;-59
2023/04/08 03:41:46;;;;;;;5.60;5.32;;;;;;;;;;4250429;28;20462;-60
2023/04/08 03:44:06;;;;;;;3.97;3.97;;;;;;;;;;4242709;28;20069;-60
2023/04/08 03:46:26;;;;;;;5.05;5.05;;;;;;;;;;4243652;28;20107;-59
2023/04/08 03:48:46;;;;;;;4.10;4.10;;;;;;;;;;4246483;28;20038;-60
2023/04/08 03:51:06;;;;;;;4.65;4.50;;;;;;;;;;4246118;28;20276;-60
2023/04/08 03:53:28;;;;;;;4.93;4.93;;;;;;;;;;4251337;28;20043;-59
2023/04/08 03:55:51;;;;;;;3.67;3.67;;;;;;;;;;4244783;28;20123;-60
2023/04/08 03:58:11;;;;;;;3.45;3.45;;;;;;;;;;4244365;28;20050;-59
2023/04/08 04:00:32;;;;;;;5.25;5.15;;;;;;;;;;4246052;28;20046;-60
2023/04/08 04:02:52;;;;;;;3.40;3.40;;;;;;;;;;4243638;28;20422;-60
2023/04/08 04:05:12;;;;;;;3.70;3.60;;;;;;;;;;4242769;28;20153;-59
2023/04/08 04:07:32;;;;;;;4.10;4.10;;;;;;;;;;4241642;28;20043;-59
2023/04/08 04:09:55;;;;;;;3.50;3.50;;;;;;;;;;4245508;28;20047;-60
2023/04/08 04:12:15;;;;;;;4.03;4.03;;;;;;;;;;4249231;28;20054;-60
2023/04/08 04:14:35;;;;;;;4.45;4.45;;;;;;;;;;4245778;28;20050;-59
2023/04/08 04:16:55;;;;;;;3.72;3.72;;;;;;;;;;4243110;28;20389;-59
2023/04/08 04:19:17;;;;;;;3.55;3.55;;;;;;;;;;4248208;28;20043;-59
2023/04/08 04:21:37;;;;;;;4.25;4.25;;;;;;;;;;4244288;28;20046;-60
2023/04/08 04:23:57;;;;;;;3.78;3.75;;;;;;;;;;4246207;28;20057;-60
2023/04/08 04:26:17;;;;;;;3.25;3.25;;;;;;;;;;4242457;28;20051;-60
2023/04/08 04:28:38;;;;;;;3.67;3.58;;;;;;;;;;4250552;28;20049;-59
2023/04/08 04:30:59;;;;;;;2.90;2.90;;;;;;;;;;4245281;28;20042;-60
2023/04/08 04:33:19;;;;;;;4.05;4.03;;;;;;;;;;4244927;28;20103;-60
2023/04/08 04:35:40;;;;;;;4.18;4.18;;;;;;;;;;4243935;28;20105;-60
2023/04/08 04:38:00;;;;;;;4.53;4.43;;;;;;;;;;4249962;27;20055;-59
2023/04/08 04:40:20;;;;;;;3.40;3.40;;;;;;;;;;4247781;28;20092;-60
2023/04/08 04:42:40;;;;;;;5.15;5.15;;;;;;;;;;4246412;28;20084;-60
2023/04/08 04:45:00;;;;;;;4.32;4.32;;;;;;;;;;4245040;28;20047;-60
2023/04/08 04:47:20;;;;;;;3.65;3.58;;;;;;;;;;4249760;28;20084;-59
2023/04/08 04:49:41;;;;;;;4.13;4.13;;;;;;;;;;4250987;28;20043;-60
2023/04/08 04:52:01;;;;;;;6.43;6.32;;;;;;;;;;4247868;28;20046;-60
2023/04/08 04:54:21;;;;;;;4.60;4.60;;;;;;;;;;4243494;28;20039;-60
2023/04/08 04:56:41;;;;;;;3.72;3.72;;;;;;;;;;4248275;28;20370;-60
2023/04/08 04:59:01;;;;;;;3.78;3.78;;;;;;;;;;4244206;28;20070;-60
2023/04/08 05:01:22;;;;;;;3.25;3.20;;;;;;;;;;4244292;28;20055;-59
2023/04/08 05:03:42;;;;;;;3.38;3.38;;;;;;;;;;4243511;28;20370;-60
2023/04/08 05:06:03;;;;;;;3.72;3.72;;;;;;;;;;4247814;28;20089;-59
2023/04/08 05:08:23;;;;;;;4.07;3.97;;;;;;;;;;4252326;28;20053;-60
2023/04/08 05:10:46;;;;;;;4.57;4.57;;;;;;;;;;4251163;28;20111;-59
2023/04/08 05:13:06;;;;;;;6.25;6.15;;;;;;;;;;4246286;28;20042;-59
2023/04/08 05:15:26;;;;;;;5.97;5.88;;;;;;;;;;4250254;28;20056;-60
2023/04/08 05:17:46;;;;;;;9.80;9.60;;;;;;;;;;4252979;28;20325;-60
2023/04/08 05:20:07;;;;;;;7.30;7.20;;;;;;;;;;4242761;28;20035;-60
2023/04/08 05:22:27;;;;;;;5.32;5.25;;;;;;;;;;4247461;28;20054;-60
2023/04/08 05:24:47;;;;;;;5.40;5.30;;;;;;;;;;4247512;28;20039;-60
2023/04/08 05:27:08;;;;;;;4.32;4.32;;;;;;;;;;4243415;28;20046;-60
2023/04/08 05:29:28;;;;;;;5.40;5.40;;;;;;;;;;4246332;28;20264;-59
2023/04/08 05:31:48;;;;;;;6.28;6.22;;;;;;;;;;4249926;28;20045;-60
2023/04/08 05:34:09;;;;;;;5.57;5.53;;;;;;;;;;4250770;28;20057;-60
2023/04/08 05:36:30;;;;;;;4.93;4.82;;;;;;;;;;4243281;28;20047;-60
2023/04/08 05:38:50;;;;;;;4.32;4.32;;;;;;;;;;4248472;28;20058;-60
2023/04/08 05:41:11;;;;;;;4.80;4.80;;;;;;;;;;4246744;28;20108;-60
2023/04/08 05:43:32;;;;;;;4.63;4.63;;;;;;;;;;4242994;28;20067;-59
2023/04/08 05:45:53;;;;;;;4.03;4.03;;;;;;;;;;4245203;28;20043;-60
2023/04/08 05:48:13;;;;;;;5.10;5.10;;;;;;;;;;4248926;28;20084;-60
2023/04/08 05:50:35;;;;;;;3.60;3.60;;;;;;;;;;4248498;27;20092;-60
2023/04/08 05:52:55;;;;;;;4.15;4.15;;;;;;;;;;4246303;28;20084;-60
2023/04/08 05:55:15;;;;;;;3.90;3.90;;;;;;;;;;4243692;28;20042;-61
2023/04/08 05:57:36;;;;;;;4.13;4.13;;;;;;;;;;4249155;28;20080;-60
2023/04/08 05:59:56;;;;;;;9.38;9.27;;;;;;;;;;4247027;28;20078;-60
2023/04/08 06:02:16;;;;;;;10.30;10.10;;;;;;;;;;4236907;28;20085;-60
2023/04/08 06:04:36;;;;;;;6.80;6.60;;;;;;;;;;4243793;28;20087;-60
2023/04/08 06:06:58;;;;;;;9.82;9.63;;;;;;;;;;4247877;28;20047;-60
2023/04/08 06:09:19;;;;;;;4.05;4.05;;;;;;;;;;4246854;28;20034;-60
2023/04/08 06:11:40;;;;;;;6.18;6.07;;;;;;;;;;4245654;28;20081;-60
2023/04/08 06:14:00;;;;;;;6.97;6.88;;;;;;;;;;4248719;28;20222;-60
2023/04/08 06:16:20;;;;;;;18.52;18.02;;;;;;;;;;4246118;28;20362;-60
2023/04/08 06:18:41;;;;;;;4.30;4.20;;;;;;;;;;4245978;28;20219;-60
2023/04/08 06:21:01;;;;;;;3.58;3.50;;;;;;;;;;4251107;28;20393;-60
2023/04/08 06:23:21;;;;;;;5.63;5.63;;;;;;;;;;4246418;28;20088;-60
2023/04/08 06:25:41;;;;;;;4.85;4.75;;;;;;;;;;4245273;28;20058;-60
2023/04/08 06:28:02;;;;;;;3.88;3.88;;;;;;;;;;4249349;28;20047;-60
2023/04/08 06:30:22;;;;;;;4.40;4.40;;;;;;;;;;4248745;28;20080;-60
2023/04/08 06:32:42;;;;;;;5.60;5.60;;;;;;;;;;4254333;28;20046;-60
2023/04/08 06:35:03;;;;;;;5.40;5.30;;;;;;;;;;4240495;28;20119;-60
2023/04/08 06:37:23;;;;;;;6.30;6.20;;;;;;;;;;4248469;27;20073;-60
2023/04/08 06:39:44;;;;;;;5.78;5.68;;;;;;;;;;4248673;28;20377;-60
2023/04/08 06:42:05;;;;;;;4.65;4.65;;;;;;;;;;4252329;28;20075;-60
2023/04/08 06:44:25;;;;;;;6.95;6.85;;;;;;;;;;4249943;28;20066;-60
2023/04/08 06:46:45;;;;;;;5.53;5.43;;;;;;;;;;4243515;28;20042;-60
2023/04/08 06:49:06;;;;;;;5.13;5.13;;;;;;;;;;4246801;28;20080;-60
2023/04/08 06:51:27;;;;;;;6.10;6.00;;;;;;;;;;4246588;28;20092;-60
2023/04/08 06:53:47;;;;;;;8.57;8.38;;;;;;;;;;4247051;28;20080;-60
2023/04/08 06:56:08;;;;;;;5.65;5.65;;;;;;;;;;4243236;28;20085;-59
2023/04/08 06:58:28;;;;;;;5.25;5.15;;;;;;;;;;4248841;28;20046;-58
2023/04/08 07:00:48;;;;;;;5.45;5.35;;;;;;;;;;4242037;28;20058;-59
2023/04/08 07:03:10;;;;;;;4.88;4.57;;;;;;;;;;4249231;28;20043;-59
2023/04/08 07:05:31;;;;;;;4.22;4.22;;;;;;;;;;4242319;28;20307;-59
2023/04/08 07:07:51;;;;;;;4.03;3.92;;;;;;;;;;4247967;28;20056;-59
2023/04/08 07:10:12;;;;;;;3.45;3.45;;;;;;;;;;4242927;28;20042;-59
2023/04/08 07:12:32;;;;;;;3.92;3.80;;;;;;;;;;4249109;28;20065;-59
2023/04/08 07:14:52;;;;;;;3.65;3.65;;;;;;;;;;4245756;28;20114;-59
2023/04/08 07:17:12;;;;;;;3.35;3.25;;;;;;;;;;4247764;28;20125;-59
2023/04/08 07:19:32;;;;;;;3.25;3.15;;;;;;;;;;4242418;28;20034;-58
2023/04/08 07:21:53;;;;;;;3.75;3.67;;;;;;;;;;4242983;28;20042;-58
2023/04/08 07:24:13;;;;;;;2.92;2.92;;;;;;;;;;4249080;28;20114;-58
2023/04/08 07:26:33;;;;;;;3.10;3.10;;;;;;;;;;4247280;28;20103;-58
2023/04/08 07:28:53;;;;;;;3.45;3.30;;;;;;;;;;4246886;28;20046;-58
2023/04/08 07:31:15;;;;;;;2.75;2.75;;;;;;;;;;4245233;28;20047;-58
2023/04/08 07:33:35;;;;;;;3.20;3.20;;;;;;;;;;4236352;28;20106;-58
2023/04/08 07:35:55;;;;;;;4.00;3.90;;;;;;;;;;4248779;28;20070;-57
2023/04/08 07:38:16;;;;;;;3.20;3.20;;;;;;;;;;4249961;28;20298;-58
2023/04/08 07:40:37;;;;;;;3.50;3.50;;;;;;;;;;4248309;28;20042;-58
2023/04/08 07:42:57;;;;;;;3.65;3.65;;;;;;;;;;4247537;28;20088;-57
2023/04/08 07:45:17;;;;;;;4.95;4.85;;;;;;;;;;4249459;28;20049;-58
2023/04/08 07:47:37;;;;;;;2.50;2.50;;;;;;;;;;4242421;28;20103;-57
2023/04/08 07:49:57;;;;;;;6.90;6.63;;;;;;;;;;4246782;28;20243;-58
2023/04/08 07:52:18;;;;;;;4.68;4.57;;;;;;;;;;4248100;28;20084;-58
2023/04/08 07:54:38;;;;;;;3.25;3.25;;;;;;;;;;4249165;28;20358;-64
2023/04/08 07:57:00;;;;;;;4.10;4.00;;;;;;;;;;4243234;28;20054;-57
2023/04/08 07:59:20;;;;;;;2.30;2.30;;;;;;;;;;4247460;28;20053;-58
2023/04/08 08:01:40;;;;;;;3.65;3.65;;;;;;;;;;4246842;28;20407;-58
2023/04/08 08:04:02;;;;;;;2.83;2.72;;;;;;;;;;4247513;28;20046;-57
2023/04/08 08:06:22;;;;;;;4.30;4.20;;;;;;;;;;4244943;28;20046;-58
2023/04/08 08:08:43;;;;;;;3.97;3.97;;;;;;;;;;4246987;28;20041;-57
2023/04/08 08:11:03;;;;;;;5.13;4.82;;;;;;;;;;4243322;28;20050;-58
2023/04/08 08:13:23;;;;;;;3.40;3.30;;;;;;;;;;4250776;27;20046;-57
2023/04/08 08:15:43;;;;;;;3.90;3.70;;;;;;;;;;4244081;28;20102;-58
2023/04/08 08:18:03;;;;;;;3.47;3.47;;;;;;;;;;4248320;28;20050;-57
2023/04/08 08:20:24;;;;;;;3.17;3.08;;;;;;;;;;4247269;28;20054;-57
2023/04/08 08:22:44;;;;;;;3.50;3.50;;;;;;;;;;4251733;28;20405;-58
2023/04/08 08:25:17;;;;;;;3.17;3.17;;;;;;;;;;4245693;28;20107;-58
2023/04/08 08:27:39;;;;;;;3.33;3.33;;;;;;;;;;4250216;28;20042;-57
2023/04/08 08:30:00;;;;;;;3.30;3.20;;;;;;;;;;4247052;28;20035;-57
2023/04/08 08:32:20;;;;;;;3.30;3.20;;;;;;;;;;4248373;28;20366;-58
2023/04/08 08:34:40;;;;;;;3.83;3.67;;;;;;;;;;4237291;28;20039;-58
2023/04/08 08:37:00;;;;;;;3.17;3.17;;;;;;;;;;4250267;27;20050;-58
2023/04/08 08:39:20;;;;;;;4.20;4.10;;;;;;;;;;4246757;28;20061;-58
2023/04/08 08:41:41;;;;;;;5.00;4.10;;;;;;;;;;4250891;28;20046;-58
2023/04/08 08:44:02;;;;;;;3.15;3.15;;;;;;;;;;4246347;28;20231;-58
2023/04/08 08:46:22;;;;;;;3.65;3.55;;;;;;;;;;4248042;28;20374;-57
2023/04/08 08:48:46;;;;;;;2.28;2.28;;;;;;;;;;4244372;28;20070;-58
2023/04/08 08:51:06;;;;;;;;;;;;;;;;;;4252248;28;20049;-57
2023/04/08 08:53:29;;;;;;;3.03;2.63;;;;;;;;;;4248744;28;20140;-57
2023/04/08 08:55:51;;;;;;;3.28;3.17;;;;;;;;;;4245921;28;20081;-58
2023/04/08 08:58:31;;;;;;;3.83;3.45;;;;;;;;;;4243922;28;20116;-58
2023/04/08 09:00:52;;;;;;;2.97;2.75;;;;;;;;;;4246164;28;20045;-58
2023/04/08 09:03:16;;;;;;;3.42;3.33;;;;;;;;;;4245460;28;20238;-58
2023/04/08 09:05:47;;;;;;;4.35;4.00;;;;;;;;;;4244741;28;20084;-58
2023/04/08 09:08:22;;;;;;;4.43;4.22;;;;;;;;;;4247222;28;20101;-58
2023/04/08 09:10:42;;;;;;;3.63;3.53;;;;;;;;;;4243403;28;20061;-57
2023/04/08 09:13:03;;;;;;;3.78;3.67;;;;;;;;;;4249899;28;20062;-57
2023/04/08 09:15:23;;;;;;;3.35;3.10;;;;;;;;;;4247476;28;20039;-58
2023/04/08 09:17:43;;;;;;;3.55;3.25;;;;;;;;;;4243817;28;20046;-58
2023/04/08 09:20:11;;;;;;;2.60;2.50;;;;;;;;;;4254377;28;20049;-57
2023/04/08 09:22:31;;;;;;;3.38;3.17;;;;;;;;;;4247682;28;20034;-58
2023/04/08 09:24:51;;;;;;;2.63;2.58;;;;;;;;;;4248195;27;20081;-58
2023/04/08 09:27:12;;;;;;;3.00;2.85;;;;;;;;;;4229323;28;20051;-58
2023/04/08 09:29:33;;;;;;;3.22;3.00;;;;;;;;;;4250931;28;20034;-58
2023/04/08 09:31:57;;;;;;;3.22;3.10;;;;;;;;;;4245826;28;20071;-58
2023/04/08 09:34:22;;;;;;;3.88;2.70;;;;;;;;;;4250444;28;20050;-58
2023/04/08 09:36:43;;;;;;;2.50;2.40;;;;;;;;;;4252591;27;20108;-57
2023/04/08 09:39:04;;;;;;;2.85;2.78;;;;;;;;;;4243352;28;20074;-58
2023/04/08 09:41:26;;;;;;;4.60;2.78;;;;;;;;;;4248116;28;20064;-58
2023/04/08 09:43:51;;;;;;;2.47;2.47;;;;;;;;;;4251978;28;20222;-58
2023/04/08 09:46:12;;;;;;;5.03;2.97;;;;;;;;;;4245225;28;20084;-58
2023/04/08 09:48:37;;;;;;;2.85;2.85;;;;;;;;;;4244953;28;20050;-58
2023/04/08 09:50:59;;;;;;;2.63;2.42;;;;;;;;;;4249270;28;20066;-59
2023/04/08 09:53:21;;;;;;;3.13;2.83;;;;;;;;;;4249863;28;20061;-58
2023/04/08 09:55:43;;;;;;;2.78;2.67;;;;;;;;;;4245464;28;20119;-58
2023/04/08 09:58:08;;;;;;;3.05;2.92;;;;;;;;;;4246564;28;20042;-58
2023/04/08 10:00:34;;;;;;;5.07;3.58;;;;;;;;;;4249394;28;20096;-58
2023/04/08 10:02:58;;;;;;;3.25;3.15;;;;;;;;;;4245886;28;20077;-58
2023/04/08 10:05:19;;;;;;;2.95;2.75;;;;;;;;;;4246963;28;20354;-59
2023/04/08 10:07:41;;;;;;;2.42;2.35;;;;;;;;;;4239041;28;20123;-59
2023/04/08 10:10:02;;;;;;;3.20;3.05;;;;;;;;;;4250464;28;20141;-58
2023/04/08 10:12:22;;;;;;;2.88;2.88;;;;;;;;;;4250740;28;20337;-59
2023/04/08 10:15:02;;;;;;;3.60;3.40;;;;;;;;;;4247299;28;20072;-58
2023/04/08 10:17:27;;;;;;;3.17;3.13;;;;;;;;;;4246200;28;20042;-59
2023/04/08 10:19:48;;;;;;;2.58;2.47;;;;;;;;;;4247615;28;20122;-58
2023/04/08 10:22:27;;;;;;;2.90;2.70;;;;;;;;;;4246190;28;20142;-58
2023/04/08 10:25:07;;;;;;;2.83;2.83;;;;;;;;;;4244796;28;20046;-58
2023/04/08 10:27:48;;;;;;;3.28;3.03;;;;;;;;;;4251718;28;20042;-58
2023/04/08 10:30:27;;;;;;;2.55;2.55;;;;;;;;;;4249597;28;20038;-58
2023/04/08 10:32:47;;;;;;;3.03;2.83;;;;;;;;;;4244132;28;20054;-58
2023/04/08 10:35:08;;;;;;;3.17;3.03;;;;;;;;;;4247478;27;20058;-58
2023/04/08 10:37:28;;;;;;;4.18;3.00;;;;;;;;;;4252507;28;20051;-58
2023/04/08 10:39:50;;;;;;;2.63;2.63;;;;;;;;;;4251263;28;20246;-57
2023/04/08 10:42:11;;;;;;;4.30;4.03;;;;;;;;;;4250173;28;20046;-58
2023/04/08 10:44:32;;;;;;;3.70;3.60;;;;;;;;;;4252696;28;20060;-58
2023/04/08 10:46:53;;;;;;;3.47;3.05;;;;;;;;;;4244627;28;20400;-57
2023/04/08 10:49:13;;;;;;;3.08;2.88;;;;;;;;;;4247725;28;20065;-57
2023/04/08 10:51:34;;;;;;;3.03;2.97;;;;;;;;;;4247915;28;20403;-57
2023/04/08 10:53:54;;;;;;;3.00;2.78;;;;;;;;;;4242730;28;20382;-58
2023/04/08 10:56:17;;;;;;;3.67;3.58;;;;;;;;;;4245471;28;20050;-58
2023/04/08 10:58:47;;;;;;;3.65;3.55;;;;;;;;;;4246117;28;20230;-57
2023/04/08 11:01:07;;;;;;;3.65;3.63;;;;;;;;;;4247477;28;20344;-57
2023/04/08 11:03:27;;;;;;;4.80;4.47;;;;;;;;;;4239339;28;20083;-57
2023/04/08 11:05:48;;;;;;;3.50;3.30;;;;;;;;;;4246485;28;20050;-57
2023/04/08 11:08:09;;;;;;;3.42;3.22;;;;;;;;;;4244142;28;20047;-57
2023/04/08 11:10:30;;;;;;;3.03;2.92;;;;;;;;;;4249726;28;20038;-57
2023/04/08 11:12:50;;;;;;;3.45;3.20;;;;;;;;;;4243712;28;20082;-57
2023/04/08 11:15:10;;;;;;;3.95;3.83;;;;;;;;;;4250465;28;20290;-57
2023/04/08 11:17:33;;;;;;;5.03;2.67;;;;;;;;;;4247241;28;20119;-57
2023/04/08 11:19:54;;;;;;;3.25;3.15;;;;;;;;;;4249531;28;20046;-57
2023/04/08 11:22:15;;;;;;;3.35;3.25;;;;;;;;;;4242390;28;20050;-59
2023/04/08 11:24:36;;;;;;;3.33;3.08;;;;;;;;;;4242919;28;20111;-59
2023/04/08 11:26:58;;;;;;;3.72;3.63;;;;;;;;;;4242631;28;20055;-60
2023/04/08 11:29:18;;;;;;;3.65;3.42;;;;;;;;;;4246432;28;20430;-60
2023/04/08 11:31:39;;;;;;;2.90;2.75;;;;;;;;;;4245197;28;20227;-59
2023/04/08 11:33:59;;;;;;;3.35;3.17;;;;;;;;;;4244783;28;20045;-60
2023/04/08 11:36:20;;;;;;;3.85;3.55;;;;;;;;;;4243126;27;20243;-61
2023/04/08 11:38:41;;;;;;;3.60;3.40;;;;;;;;;;4243275;28;20115;-60
2023/04/08 11:41:01;;;;;;;3.67;3.47;;;;;;;;;;4234961;28;20059;-60
2023/04/08 11:43:21;;;;;;;3.03;3.03;;;;;;;;;;4247563;28;20362;-60
2023/04/08 11:45:42;;;;;;;3.50;3.30;;;;;;;;;;4243266;28;20080;-60
2023/04/08 11:48:08;;;;;;;3.05;2.95;;;;;;;;;;4240735;28;20104;-59
2023/04/08 11:50:29;;;;;;;3.13;2.92;;;;;;;;;;4250138;28;20275;-60
2023/04/08 11:52:51;;;;;;;3.95;3.85;;;;;;;;;;4249277;28;20045;-60
2023/04/08 11:55:12;;;;;;;3.25;3.05;;;;;;;;;;4246481;28;20087;-60
2023/04/08 11:57:32;;;;;;;2.67;2.47;;;;;;;;;;4246006;28;20143;-60
2023/04/08 11:59:52;;;;;;;2.55;2.55;;;;;;;;;;4249754;28;20088;-60
2023/04/08 12:02:12;;;;;;;3.40;3.20;;;;;;;;;;4251004;28;20049;-60
2023/04/08 12:04:33;;;;;;;2.75;2.63;;;;;;;;;;4247579;28;20046;-60
2023/04/08 12:06:53;;;;;;;3.15;3.00;;;;;;;;;;4249986;28;20093;-60
2023/04/08 12:09:15;;;;;;;3.63;3.50;;;;;;;;;;4251511;28;20085;-60
2023/04/08 12:11:35;;;;;;;3.95;3.55;;;;;;;;;;4246633;28;20051;-60
2023/04/08 12:13:56;;;;;;;3.47;3.28;;;;;;;;;;4244430;28;20058;-61
2023/04/08 12:16:16;;;;;;;3.35;3.25;;;;;;;;;;4246301;28;20251;-60
2023/04/08 12:18:37;;;;;;;3.17;3.05;;;;;;;;;;4242151;28;20054;-60
2023/04/08 12:20:57;;;;;;;2.78;2.58;;;;;;;;;;4243967;28;20047;-60
2023/04/08 12:23:17;;;;;;;3.05;2.85;;;;;;;;;;4246035;28;20050;-60
2023/04/08 12:25:37;;;;;;;3.17;3.08;;;;;;;;;;4246470;28;20373;-60
2023/04/08 12:27:58;;;;;;;2.90;2.90;;;;;;;;;;4241725;28;20081;-60
2023/04/08 12:30:18;;;;;;;3.53;3.22;;;;;;;;;;4234905;28;20046;-60
2023/04/08 12:32:38;;;;;;;2.95;2.90;;;;;;;;;;4245471;28;20088;-60
2023/04/08 12:34:58;;;;;;;2.72;2.70;;;;;;;;;;4247808;28;20039;-60
2023/04/08 12:37:19;;;;;;;3.95;3.88;;;;;;;;;;4242742;27;20078;-60
2023/04/08 12:39:39;;;;;;;4.15;3.90;;;;;;;;;;4243201;28;20081;-60
2023/04/08 12:41:59;;;;;;;3.83;3.72;;;;;;;;;;4244503;28;20241;-60
2023/04/08 12:44:19;;;;;;;4.50;4.38;;;;;;;;;;4248014;28;20077;-60
2023/04/08 12:46:39;;;;;;;10.00;9.15;;;;;;;;;;4241985;28;20038;-60
2023/04/08 12:49:00;;;;;;;4.50;4.40;;;;;;;;;;4240871;28;20265;-60
2023/04/08 12:51:25;;;;;;;4.45;4.28;;;;;;;;;;4241655;28;20109;-60
2023/04/08 12:53:46;;;;;;;3.50;3.30;;;;;;;;;;4248469;28;20227;-60
2023/04/08 12:56:06;;;;;;;4.60;4.30;;;;;;;;;;4245914;28;20070;-59
2023/04/08 12:58:26;;;;;;;3.42;3.35;;;;;;;;;;4243685;28;20230;-60
2023/04/08 13:00:48;;;;;;;4.22;4.13;;;;;;;;;;4243395;28;20238;-60
2023/04/08 13:03:08;;;;;;;3.83;3.72;;;;;;;;;;4248246;28;20081;-60
2023/04/08 13:05:29;;;;;;;3.67;3.58;;;;;;;;;;4249219;28;20369;-60
2023/04/08 13:08:02;;;;;;;5.05;4.85;;;;;;;;;;4247515;28;20042;-61
2023/04/08 13:10:22;;;;;;;5.00;4.90;;;;;;;;;;4251391;28;20050;-60
2023/04/08 13:12:43;;;;;;;5.72;5.63;;;;;;;;;;4248048;28;20397;-60
2023/04/08 13:15:04;;;;;;;6.07;5.88;;;;;;;;;;4245750;28;20084;-60
2023/04/08 13:17:24;;;;;;;5.60;5.50;;;;;;;;;;4246038;28;20088;-60
2023/04/08 13:19:44;;;;;;;6.10;5.90;;;;;;;;;;4248281;28;20046;-61
2023/04/08 13:22:04;;;;;;;5.88;5.65;;;;;;;;;;4244393;28;20361;-60
2023/04/08 13:24:25;;;;;;;5.75;5.50;;;;;;;;;;4243784;28;20120;-61
2023/04/08 13:26:45;;;;;;;5.53;5.43;;;;;;;;;;4251116;28;20266;-60
2023/04/08 13:29:05;;;;;;;6.75;6.28;;;;;;;;;;4245428;28;20047;-60
2023/04/08 13:31:25;;;;;;;6.00;5.80;;;;;;;;;;4252548;28;20493;-60
2023/04/08 13:33:45;;;;;;;5.18;5.07;;;;;;;;;;4248722;28;20070;-60
2023/04/08 13:36:06;;;;;;;5.85;5.65;;;;;;;;;;4251172;27;20262;-60
2023/04/08 13:38:26;;;;;;;4.68;4.57;;;;;;;;;;4243082;28;20065;-60
2023/04/08 13:40:47;;;;;;;5.72;5.63;;;;;;;;;;4247042;28;20046;-60
2023/04/08 13:43:09;;;;;;;5.88;5.38;;;;;;;;;;4249305;28;20043;-60
2023/04/08 13:45:29;;;;;;;4.60;4.40;;;;;;;;;;4252093;28;20076;-60
2023/04/08 13:47:49;;;;;;;5.43;5.18;;;;;;;;;;4250831;28;20047;-60
2023/04/08 13:50:10;;;;;;;6.50;6.03;;;;;;;;;;4245514;28;20290;-60
2023/04/08 13:52:30;;;;;;;3.38;3.28;;;;;;;;;;4240617;28;20050;-60
2023/04/08 13:54:50;;;;;;;4.60;4.43;;;;;;;;;;4246393;28;20227;-60
2023/04/08 13:57:11;;;;;;;3.90;3.80;;;;;;;;;;4246370;28;20370;-60
2023/04/08 13:59:31;;;;;;;3.00;2.90;;;;;;;;;;4247463;28;20058;-60
2023/04/08 14:01:52;;;;;;;4.40;4.30;;;;;;;;;;4247782;28;20047;-60
2023/04/08 14:04:13;;;;;;;3.65;3.55;;;;;;;;;;4247854;28;20142;-60
2023/04/08 14:06:34;;;;;;;3.95;3.85;;;;;;;;;;4247291;28;20134;-60